METAR Data
IDs: Format: Raw Decoded Include TAF

Data at: 1938 UTC 26 Sep 2021

METAR for:KDCM (Chester Muni, SC, US)
Text:KDCM 261835Z AUTO 26003KT 10SM SCT050 26/07 A3011 RMK AO2
Temperature: 26.0°C ( 79°F)
Dewpoint: 7.0°C ( 45°F) [RH = 30%]
Pressure (altimeter):30.11 inches Hg (1019.7 mb)
Winds:from the W (260 degrees) at 3 MPH (3 knots; 1.5 m/s)
Visibility:10 or more sm (16+ km)
Ceiling:at least 12,000 feet AGL
Clouds: scattered clouds at 5000 feet AGL
QC Flag:automated observation with no human augmentation

TAF for:KDCM (Chester Muni, SC, US)
Text:No data found